sensor_id;sensor_type;location;lat;lon;timestamp;pressure;altitude;pressure_sealevel;temperature;humidity
21633;BME280;48765;51.568;8.840;2022-08-19T00:00:27;98200.94;;;18.61;100.00
21633;BME280;48765;51.568;8.840;2022-08-19T00:02:54;98209.03;;;18.81;100.00
21633;BME280;48765;51.568;8.840;2022-08-19T00:05:22;98216.09;;;18.84;100.00
21633;BME280;48765;51.568;8.840;2022-08-19T00:07:49;98203.06;;;18.75;100.00
21633;BME280;48765;51.568;8.840;2022-08-19T00:10:17;98208.56;;;18.72;100.00
21633;BME280;48765;51.568;8.840;2022-08-19T00:12:44;98207.81;;;18.68;100.00
21633;BME280;48765;51.568;8.840;2022-08-19T00:15:13;98205.56;;;18.57;100.00
21633;BME280;48765;51.568;8.840;2022-08-19T00:17:41;98206.50;;;18.56;100.00
21633;BME280;48765;51.568;8.840;2022-08-19T00:20:09;98214.94;;;18.47;100.00
21633;BME280;48765;51.568;8.840;2022-08-19T00:22:38;98206.41;;;18.37;100.00
21633;BME280;48765;51.568;8.840;2022-08-19T00:25:06;98203.94;;;18.53;100.00
21633;BME280;48765;51.568;8.840;2022-08-19T00:27:33;98212.75;;;18.57;100.00
21633;BME280;48765;51.568;8.840;2022-08-19T00:30:00;98209.88;;;18.61;100.00
21633;BME280;48765;51.568;8.840;2022-08-19T00:32:28;98204.56;;;18.60;100.00
21633;BME280;48765;51.568;8.840;2022-08-19T00:34:55;98194.59;;;18.63;100.00
21633;BME280;48765;51.568;8.840;2022-08-19T00:37:23;98193.75;;;18.61;100.00
21633;BME280;48765;51.568;8.840;2022-08-19T00:39:53;98200.47;;;18.51;100.00
21633;BME280;48765;51.568;8.840;2022-08-19T00:42:21;98194.81;;;18.57;100.00
21633;BME280;48765;51.568;8.840;2022-08-19T00:44:48;98187.31;;;18.45;100.00
21633;BME280;48765;51.568;8.840;2022-08-19T00:47:15;98176.44;;;18.48;100.00
21633;BME280;48765;51.568;8.840;2022-08-19T00:49:43;98180.59;;;18.55;100.00
21633;BME280;48765;51.568;8.840;2022-08-19T00:52:16;98170.16;;;18.49;100.00
21633;BME280;48765;51.568;8.840;2022-08-19T00:54:45;98174.28;;;18.36;100.00
21633;BME280;48765;51.568;8.840;2022-08-19T00:57:15;98166.63;;;18.47;100.00
21633;BME280;48765;51.568;8.840;2022-08-19T00:59:44;98176.28;;;18.31;100.00
21633;BME280;48765;51.568;8.840;2022-08-19T01:02:12;98174.28;;;18.36;100.00
21633;BME280;48765;51.568;8.840;2022-08-19T01:04:39;98174.28;;;18.36;100.00
21633;BME280;48765;51.568;8.840;2022-08-19T01:07:06;98175.06;;;18.18;100.00
21633;BME280;48765;51.568;8.840;2022-08-19T01:09:33;98172.13;;;18.24;100.00
21633;BME280;48765;51.568;8.840;2022-08-19T01:12:00;98164.63;;;18.32;100.00
21633;BME280;48765;51.568;8.840;2022-08-19T01:14:29;98167.88;;;18.18;100.00
21633;BME280;48765;51.568;8.840;2022-08-19T01:16:56;98168.66;;;18.42;100.00
21633;BME280;48765;51.568;8.840;2022-08-19T01:19:26;98165.69;;;18.28;100.00
21633;BME280;48765;51.568;8.840;2022-08-19T01:21:55;98174.91;;;18.21;100.00
21633;BME280;48765;51.568;8.840;2022-08-19T01:24:26;98177.66;;;18.19;100.00
21633;BME280;48765;51.568;8.840;2022-08-19T01:26:53;98172.38;;;18.18;100.00
21633;BME280;48765;51.568;8.840;2022-08-19T01:29:20;98171.16;;;18.25;100.00
21633;BME280;48765;51.568;8.840;2022-08-19T01:31:47;98172.47;;;18.16;100.00
21633;BME280;48765;51.568;8.840;2022-08-19T01:34:14;98164.06;;;18.24;100.00
21633;BME280;48765;51.568;8.840;2022-08-19T01:36:42;98176.69;;;18.22;100.00
21633;BME280;48765;51.568;8.840;2022-08-19T01:39:11;98160.97;;;18.12;100.00
21633;BME280;48765;51.568;8.840;2022-08-19T01:41:41;98158.34;;;18.11;100.00
21633;BME280;48765;51.568;8.840;2022-08-19T01:44:08;98155.59;;;18.12;100.00
21633;BME280;48765;51.568;8.840;2022-08-19T01:46:36;98151.13;;;18.13;100.00
21633;BME280;48765;51.568;8.840;2022-08-19T01:49:03;98148.34;;;18.14;100.00
21633;BME280;48765;51.568;8.840;2022-08-19T01:51:30;98147.75;;;18.08;100.00
21633;BME280;48765;51.568;8.840;2022-08-19T01:53:58;98152.75;;;17.95;100.00
21633;BME280;48765;51.568;8.840;2022-08-19T01:56:25;98152.84;;;17.92;100.00
21633;BME280;48765;51.568;8.840;2022-08-19T01:58:54;98151.28;;;17.88;100.00
21633;BME280;48765;51.568;8.840;2022-08-19T02:01:22;98143.75;;;17.96;100.00
21633;BME280;48765;51.568;8.840;2022-08-19T02:03:49;98141.44;;;17.87;100.00
21633;BME280;48765;51.568;8.840;2022-08-19T02:06:18;98149.50;;;17.87;100.00
21633;BME280;48765;51.568;8.840;2022-08-19T02:08:45;98143.34;;;17.85;100.00
21633;BME280;48765;51.568;8.840;2022-08-19T02:11:18;98150.34;;;17.66;100.00
21633;BME280;48765;51.568;8.840;2022-08-19T02:13:45;98147.84;;;17.61;100.00
21633;BME280;48765;51.568;8.840;2022-08-19T02:16:14;98150.81;;;17.53;100.00
21633;BME280;48765;51.568;8.840;2022-08-19T02:18:41;98149.28;;;17.48;100.00
21633;BME280;48765;51.568;8.840;2022-08-19T02:21:08;98149.59;;;17.62;100.00
21633;BME280;48765;51.568;8.840;2022-08-19T02:23:35;98158.06;;;17.51;100.00
21633;BME280;48765;51.568;8.840;2022-08-19T02:26:02;98152.88;;;17.47;100.00
21633;BME280;48765;51.568;8.840;2022-08-19T02:28:29;98151.19;;;17.44;100.00
21633;BME280;48765;51.568;8.840;2022-08-19T02:30:55;98147.81;;;17.39;100.00
21633;BME280;48765;51.568;8.840;2022-08-19T02:33:27;98150.59;;;17.36;100.00
21633;BME280;48765;51.568;8.840;2022-08-19T02:35:54;98154.81;;;17.43;100.00
21633;BME280;48765;51.568;8.840;2022-08-19T02:38:21;98152.94;;;17.45;100.00
21633;BME280;48765;51.568;8.840;2022-08-19T02:40:53;98155.28;;;17.31;100.00
21633;BME280;48765;51.568;8.840;2022-08-19T02:43:20;98143.06;;;17.24;100.00
21633;BME280;48765;51.568;8.840;2022-08-19T02:45:48;98145.09;;;17.17;100.00
21633;BME280;48765;51.568;8.840;2022-08-19T02:48:15;98144.81;;;17.25;100.00
21633;BME280;48765;51.568;8.840;2022-08-19T02:50:45;98161.53;;;17.31;100.00
21633;BME280;48765;51.568;8.840;2022-08-19T02:53:12;98168.13;;;17.23;100.00
21633;BME280;48765;51.568;8.840;2022-08-19T02:55:43;98170.19;;;17.15;100.00
21633;BME280;48765;51.568;8.840;2022-08-19T02:58:11;98170.53;;;17.05;100.00
21633;BME280;48765;51.568;8.840;2022-08-19T03:00:41;98162.09;;;17.16;100.00
21633;BME280;48765;51.568;8.840;2022-08-19T03:03:09;98160.16;;;16.96;100.00
21633;BME280;48765;51.568;8.840;2022-08-19T03:05:36;98151.09;;;17.00;100.00
21633;BME280;48765;51.568;8.840;2022-08-19T03:08:04;98154.13;;;16.91;100.00
21633;BME280;48765;51.568;8.840;2022-08-19T03:10:31;98136.59;;;16.82;100.00
21633;BME280;48765;51.568;8.840;2022-08-19T03:12:58;98145.09;;;16.94;100.00
21633;BME280;48765;51.568;8.840;2022-08-19T03:15:25;98161.22;;;16.92;100.00
21633;BME280;48765;51.568;8.840;2022-08-19T03:17:52;98166.63;;;16.66;100.00
21633;BME280;48765;51.568;8.840;2022-08-19T03:20:19;98159.63;;;16.61;100.00
21633;BME280;48765;51.568;8.840;2022-08-19T03:22:46;98156.53;;;16.74;100.00
21633;BME280;48765;51.568;8.840;2022-08-19T03:25:15;98161.38;;;16.63;100.00
21633;BME280;48765;51.568;8.840;2022-08-19T03:27:42;98159.81;;;16.82;100.00
21633;BME280;48765;51.568;8.840;2022-08-19T03:30:10;98166.66;;;16.39;100.00
21633;BME280;48765;51.568;8.840;2022-08-19T03:32:37;98156.41;;;16.52;100.00
21633;BME280;48765;51.568;8.840;2022-08-19T03:35:04;98164.38;;;16.53;100.00
21633;BME280;48765;51.568;8.840;2022-08-19T03:37:31;98157.31;;;16.51;100.00
21633;BME280;48765;51.568;8.840;2022-08-19T03:39:58;98160.28;;;16.68;100.00
21633;BME280;48765;51.568;8.840;2022-08-19T03:42:26;98157.53;;;16.70;100.00
21633;BME280;48765;51.568;8.840;2022-08-19T03:44:54;98163.38;;;16.56;100.00
21633;BME280;48765;51.568;8.840;2022-08-19T03:47:21;98169.44;;;16.36;100.00
21633;BME280;48765;51.568;8.840;2022-08-19T03:49:48;98172.94;;;16.38;100.00
21633;BME280;48765;51.568;8.840;2022-08-19T03:52:15;98177.19;;;16.44;100.00
21633;BME280;48765;51.568;8.840;2022-08-19T03:54:42;98183.09;;;16.28;100.00
21633;BME280;48765;51.568;8.840;2022-08-19T03:57:10;98184.38;;;16.42;100.00
21633;BME280;48765;51.568;8.840;2022-08-19T03:59:38;98185.69;;;16.30;100.00
21633;BME280;48765;51.568;8.840;2022-08-19T04:02:06;98190.97;;;16.33;100.00
21633;BME280;48765;51.568;8.840;2022-08-19T04:04:35;98186.81;;;16.23;100.00
21633;BME280;48765;51.568;8.840;2022-08-19T04:07:03;98201.66;;;16.33;100.00
21633;BME280;48765;51.568;8.840;2022-08-19T04:09:30;98193.41;;;16.13;100.00
21633;BME280;48765;51.568;8.840;2022-08-19T04:11:57;98196.19;;;16.09;100.00
21633;BME280;48765;51.568;8.840;2022-08-19T04:14:24;98198.56;;;16.19;100.00
21633;BME280;48765;51.568;8.840;2022-08-19T04:16:56;98197.50;;;16.23;100.00
21633;BME280;48765;51.568;8.840;2022-08-19T04:19:24;98199.78;;;16.35;100.00
21633;BME280;48765;51.568;8.840;2022-08-19T04:21:52;98192.22;;;16.21;100.00
21633;BME280;48765;51.568;8.840;2022-08-19T04:24:19;98190.06;;;16.06;100.00
21633;BME280;48765;51.568;8.840;2022-08-19T04:26:47;98191.00;;;16.05;100.00
21633;BME280;48765;51.568;8.840;2022-08-19T04:29:15;98197.63;;;15.93;100.00
21633;BME280;48765;51.568;8.840;2022-08-19T04:31:42;98193.28;;;15.89;100.00
21633;BME280;48765;51.568;8.840;2022-08-19T04:34:12;98184.97;;;15.98;100.00
21633;BME280;48765;51.568;8.840;2022-08-19T04:36:41;98188.06;;;16.13;100.00
21633;BME280;48765;51.568;8.840;2022-08-19T04:39:10;98193.06;;;15.97;100.00
21633;BME280;48765;51.568;8.840;2022-08-19T04:41:37;98190.38;;;15.97;100.00
21633;BME280;48765;51.568;8.840;2022-08-19T04:44:21;98184.88;;;16.01;100.00
21633;BME280;48765;51.568;8.840;2022-08-19T04:46:49;98177.88;;;15.97;100.00
21633;BME280;48765;51.568;8.840;2022-08-19T04:49:18;98177.25;;;15.89;100.00
21633;BME280;48765;51.568;8.840;2022-08-19T04:51:47;98186.63;;;16.02;100.00
21633;BME280;48765;51.568;8.840;2022-08-19T04:54:14;98189.50;;;15.96;100.00
21633;BME280;48765;51.568;8.840;2022-08-19T04:56:42;98199.19;;;16.00;100.00
21633;BME280;48765;51.568;8.840;2022-08-19T04:59:09;98198.59;;;15.91;100.00
21633;BME280;48765;51.568;8.840;2022-08-19T05:01:36;98200.28;;;15.93;100.00
21633;BME280;48765;51.568;8.840;2022-08-19T05:04:04;98191.09;;;16.02;100.00
21633;BME280;48765;51.568;8.840;2022-08-19T05:06:33;98192.25;;;15.93;100.00
21633;BME280;48765;51.568;8.840;2022-08-19T05:09:00;98197.25;;;16.04;100.00
21633;BME280;48765;51.568;8.840;2022-08-19T05:11:28;98190.16;;;16.03;100.00
21633;BME280;48765;51.568;8.840;2022-08-19T05:13:55;98198.03;;;16.07;100.00
21633;BME280;48765;51.568;8.840;2022-08-19T05:16:23;98197.22;;;16.05;100.00
21633;BME280;48765;51.568;8.840;2022-08-19T05:18:50;98216.97;;;16.01;100.00
21633;BME280;48765;51.568;8.840;2022-08-19T05:21:36;98204.22;;;16.09;100.00
21633;BME280;48765;51.568;8.840;2022-08-19T05:24:21;98203.00;;;16.20;100.00
21633;BME280;48765;51.568;8.840;2022-08-19T05:26:49;98205.84;;;16.14;100.00
21633;BME280;48765;51.568;8.840;2022-08-19T05:29:18;98203.00;;;16.20;100.00
21633;BME280;48765;51.568;8.840;2022-08-19T05:31:45;98200.31;;;16.20;100.00
21633;BME280;48765;51.568;8.840;2022-08-19T05:34:14;98189.19;;;16.32;100.00
21633;BME280;48765;51.568;8.840;2022-08-19T05:36:43;98189.66;;;16.45;100.00
21633;BME280;48765;51.568;8.840;2022-08-19T05:39:12;98190.28;;;16.51;100.00
21633;BME280;48765;51.568;8.840;2022-08-19T05:41:41;98192.16;;;16.49;100.00
21633;BME280;48765;51.568;8.840;2022-08-19T05:44:08;98194.44;;;16.60;100.00
21633;BME280;48765;51.568;8.840;2022-08-19T05:46:36;98198.53;;;16.72;100.00
21633;BME280;48765;51.568;8.840;2022-08-19T05:49:04;98203.03;;;16.70;100.00
21633;BME280;48765;51.568;8.840;2022-08-19T05:51:32;98192.88;;;16.81;100.00
21633;BME280;48765;51.568;8.840;2022-08-19T05:54:00;98192.88;;;16.81;100.00
21633;BME280;48765;51.568;8.840;2022-08-19T05:56:28;98189.03;;;16.88;100.00
21633;BME280;48765;51.568;8.840;2022-08-19T05:58:56;98183.69;;;17.11;100.00
21633;BME280;48765;51.568;8.840;2022-08-19T06:01:24;98191.97;;;17.05;100.00
21633;BME280;48765;51.568;8.840;2022-08-19T06:03:51;98192.59;;;17.12;100.00
21633;BME280;48765;51.568;8.840;2022-08-19T06:06:19;98195.34;;;17.10;100.00
21633;BME280;48765;51.568;8.840;2022-08-19T06:08:46;98194.66;;;17.05;100.00
21633;BME280;48765;51.568;8.840;2022-08-19T06:11:19;98192.84;;;17.06;100.00
21633;BME280;48765;51.568;8.840;2022-08-19T06:13:46;98183.94;;;17.29;100.00
21633;BME280;48765;51.568;8.840;2022-08-19T06:16:17;98188.34;;;17.53;100.00
21633;BME280;48765;51.568;8.840;2022-08-19T06:18:48;98192.78;;;17.31;100.00
21633;BME280;48765;51.568;8.840;2022-08-19T06:21:17;98193.47;;;17.36;100.00
21633;BME280;48765;51.568;8.840;2022-08-19T06:23:44;98191.34;;;17.68;100.00
21633;BME280;48765;51.568;8.840;2022-08-19T06:26:12;98190.16;;;17.76;100.00
21633;BME280;48765;51.568;8.840;2022-08-19T06:28:41;98194.03;;;17.91;100.00
21633;BME280;48765;51.568;8.840;2022-08-19T06:31:11;98197.66;;;17.90;100.00
21633;BME280;48765;51.568;8.840;2022-08-19T06:33:39;98187.78;;;17.91;100.00
21633;BME280;48765;51.568;8.840;2022-08-19T06:36:07;98187.34;;;18.01;100.00
21633;BME280;48765;51.568;8.840;2022-08-19T06:38:34;98189.28;;;18.20;100.00
21633;BME280;48765;51.568;8.840;2022-08-19T06:41:02;98192.28;;;18.12;100.00
21633;BME280;48765;51.568;8.840;2022-08-19T06:43:29;98181.78;;;18.28;100.00
21633;BME280;48765;51.568;8.840;2022-08-19T06:45:57;98192.25;;;18.34;100.00
21633;BME280;48765;51.568;8.840;2022-08-19T06:48:26;98195.19;;;18.28;100.00
21633;BME280;48765;51.568;8.840;2022-08-19T06:50:53;98199.91;;;18.43;100.00
21633;BME280;48765;51.568;8.840;2022-08-19T06:53:20;98205.16;;;18.67;100.00
21633;BME280;48765;51.568;8.840;2022-08-19T06:55:47;98196.22;;;18.88;100.00
21633;BME280;48765;51.568;8.840;2022-08-19T06:58:27;98202.16;;;18.95;100.00
21633;BME280;48765;51.568;8.840;2022-08-19T07:00:59;98203.88;;;18.97;100.00
21633;BME280;48765;51.568;8.840;2022-08-19T07:03:28;98202.84;;;19.00;100.00
21633;BME280;48765;51.568;8.840;2022-08-19T07:05:56;98207.25;;;19.21;100.00
21633;BME280;48765;51.568;8.840;2022-08-19T07:08:22;98208.13;;;19.22;100.00
21633;BME280;48765;51.568;8.840;2022-08-19T07:10:51;98221.78;;;19.17;100.00
21633;BME280;48765;51.568;8.840;2022-08-19T07:13:18;98224.38;;;19.39;100.00
21633;BME280;48765;51.568;8.840;2022-08-19T07:15:46;98232.34;;;19.59;100.00
21633;BME280;48765;51.568;8.840;2022-08-19T07:18:17;98239.91;;;19.51;100.00
21633;BME280;48765;51.568;8.840;2022-08-19T07:20:44;98249.97;;;19.66;100.00
21633;BME280;48765;51.568;8.840;2022-08-19T07:23:10;98245.38;;;19.50;100.00
21633;BME280;48765;51.568;8.840;2022-08-19T07:25:38;98246.72;;;19.79;100.00
21633;BME280;48765;51.568;8.840;2022-08-19T07:28:05;98241.34;;;19.79;100.00
21633;BME280;48765;51.568;8.840;2022-08-19T07:30:32;98251.66;;;19.88;100.00
21633;BME280;48765;51.568;8.840;2022-08-19T07:32:59;98248.66;;;19.94;100.00
21633;BME280;48765;51.568;8.840;2022-08-19T07:35:27;98260.00;;;20.20;100.00
21633;BME280;48765;51.568;8.840;2022-08-19T07:37:57;98256.41;;;20.38;100.00
21633;BME280;48765;51.568;8.840;2022-08-19T07:40:28;98265.13;;;20.43;100.00
21633;BME280;48765;51.568;8.840;2022-08-19T07:42:55;98262.72;;;20.37;100.00
21633;BME280;48765;51.568;8.840;2022-08-19T07:45:22;98265.13;;;20.43;100.00
21633;BME280;48765;51.568;8.840;2022-08-19T07:47:49;98268.50;;;20.29;100.00
21633;BME280;48765;51.568;8.840;2022-08-19T07:50:17;98286.91;;;20.38;100.00
21633;BME280;48765;51.568;8.840;2022-08-19T07:52:46;98281.56;;;20.37;100.00
21633;BME280;48765;51.568;8.840;2022-08-19T07:55:15;98286.66;;;20.43;100.00
21633;BME280;48765;51.568;8.840;2022-08-19T07:57:43;98280.88;;;20.14;100.00
21633;BME280;48765;51.568;8.840;2022-08-19T08:00:10;98285.22;;;20.36;100.00
21633;BME280;48765;51.568;8.840;2022-08-19T08:02:37;98297.03;;;20.52;100.00
21633;BME280;48765;51.568;8.840;2022-08-19T08:05:04;98297.56;;;20.40;100.00
21633;BME280;48765;51.568;8.840;2022-08-19T08:07:50;98296.72;;;20.39;100.00
21633;BME280;48765;51.568;8.840;2022-08-19T08:10:34;98293.97;;;20.77;100.00
21633;BME280;48765;51.568;8.840;2022-08-19T08:13:01;98301.25;;;20.92;100.00
21633;BME280;48765;51.568;8.840;2022-08-19T08:15:30;98295.94;;;20.74;100.00
21633;BME280;48765;51.568;8.840;2022-08-19T08:17:57;98290.25;;;21.14;100.00
21633;BME280;48765;51.568;8.840;2022-08-19T08:20:24;98288.56;;;20.77;100.00
21633;BME280;48765;51.568;8.840;2022-08-19T08:22:53;98302.13;;;20.93;100.00
21633;BME280;48765;51.568;8.840;2022-08-19T08:25:37;98300.56;;;20.89;100.00
21633;BME280;48765;51.568;8.840;2022-08-19T08:28:04;98303.56;;;20.65;100.00
21633;BME280;48765;51.568;8.840;2022-08-19T08:30:34;98302.53;;;21.03;100.00
21633;BME280;48765;51.568;8.840;2022-08-19T08:33:02;98299.13;;;21.51;100.00
21633;BME280;48765;51.568;8.840;2022-08-19T08:35:29;98289.56;;;21.46;100.00
21633;BME280;48765;51.568;8.840;2022-08-19T08:37:57;98314.19;;;21.03;100.00
21633;BME280;48765;51.568;8.840;2022-08-19T08:40:27;98303.41;;;21.21;100.00
21633;BME280;48765;51.568;8.840;2022-08-19T08:42:55;98303.16;;;21.25;100.00
21633;BME280;48765;51.568;8.840;2022-08-19T08:45:27;98311.13;;;21.46;100.00
21633;BME280;48765;51.568;8.840;2022-08-19T08:47:55;98315.38;;;21.50;100.00
21633;BME280;48765;51.568;8.840;2022-08-19T08:50:25;98301.84;;;21.34;100.00
21633;BME280;48765;51.568;8.840;2022-08-19T08:52:55;98296.06;;;21.41;100.00
21633;BME280;48765;51.568;8.840;2022-08-19T08:55:25;98298.16;;;21.69;100.00
21633;BME280;48765;51.568;8.840;2022-08-19T08:57:53;98299.50;;;22.10;100.00
21633;BME280;48765;51.568;8.840;2022-08-19T09:00:22;98306.72;;;21.93;100.00
21633;BME280;48765;51.568;8.840;2022-08-19T09:02:50;98313.41;;;21.36;100.00
21633;BME280;48765;51.568;8.840;2022-08-19T09:05:17;98310.81;;;21.67;100.00
21633;BME280;48765;51.568;8.840;2022-08-19T09:07:48;98306.88;;;21.57;100.00
21633;BME280;48765;51.568;8.840;2022-08-19T09:10:20;98306.00;;;22.06;100.00
21633;BME280;48765;51.568;8.840;2022-08-19T09:12:52;98301.56;;;22.54;100.00
21633;BME280;48765;51.568;8.840;2022-08-19T09:15:22;98302.69;;;21.85;100.00
21633;BME280;48765;51.568;8.840;2022-08-19T09:17:52;98307.53;;;21.78;100.00
21633;BME280;48765;51.568;8.840;2022-08-19T09:20:20;98306.28;;;21.68;100.00
21633;BME280;48765;51.568;8.840;2022-08-19T09:22:47;98303.41;;;21.88;100.00
21633;BME280;48765;51.568;8.840;2022-08-19T09:25:16;98304.16;;;22.24;100.00
21633;BME280;48765;51.568;8.840;2022-08-19T09:27:43;98308.69;;;22.39;100.00
21633;BME280;48765;51.568;8.840;2022-08-19T09:30:13;98301.00;;;22.15;100.00
21633;BME280;48765;51.568;8.840;2022-08-19T09:32:41;98294.41;;;22.21;100.00
21633;BME280;48765;51.568;8.840;2022-08-19T09:35:08;98314.88;;;21.92;100.00
21633;BME280;48765;51.568;8.840;2022-08-19T09:37:35;98313.38;;;22.19;100.00
21633;BME280;48765;51.568;8.840;2022-08-19T09:40:03;98316.53;;;22.28;100.00
21633;BME280;48765;51.568;8.840;2022-08-19T09:42:32;98316.81;;;22.06;100.00
21633;BME280;48765;51.568;8.840;2022-08-19T09:45:00;98307.66;;;22.26;100.00
21633;BME280;48765;51.568;8.840;2022-08-19T09:47:28;98304.06;;;22.57;100.00
21633;BME280;48765;51.568;8.840;2022-08-19T09:49:55;98300.31;;;22.59;100.00
21633;BME280;48765;51.568;8.840;2022-08-19T09:52:22;98305.00;;;22.71;100.00
21633;BME280;48765;51.568;8.840;2022-08-19T09:54:51;98297.09;;;22.68;100.00
21633;BME280;48765;51.568;8.840;2022-08-19T09:57:18;98306.00;;;22.85;98.17
21633;BME280;48765;51.568;8.840;2022-08-19T09:59:45;98298.72;;;22.71;100.00
21633;BME280;48765;51.568;8.840;2022-08-19T10:02:13;98300.88;;;22.80;100.00
21633;BME280;48765;51.568;8.840;2022-08-19T10:04:41;98301.63;;;22.68;100.00
21633;BME280;48765;51.568;8.840;2022-08-19T10:07:25;98311.47;;;22.69;100.00
21633;BME280;48765;51.568;8.840;2022-08-19T10:09:52;98314.97;;;22.55;100.00
21633;BME280;48765;51.568;8.840;2022-08-19T10:12:19;98301.69;;;22.66;100.00
21633;BME280;48765;51.568;8.840;2022-08-19T10:14:47;98302.25;;;23.03;100.00
21633;BME280;48765;51.568;8.840;2022-08-19T10:17:16;98302.13;;;22.75;99.35
21633;BME280;48765;51.568;8.840;2022-08-19T10:19:44;98306.06;;;22.53;98.68
21633;BME280;48765;51.568;8.840;2022-08-19T10:22:11;98295.31;;;22.67;99.47
21633;BME280;48765;51.568;8.840;2022-08-19T10:24:39;98296.28;;;22.66;99.91
21633;BME280;48765;51.568;8.840;2022-08-19T10:27:06;98286.22;;;22.54;100.00
21633;BME280;48765;51.568;8.840;2022-08-19T10:29:34;98285.53;;;22.81;100.00
21633;BME280;48765;51.568;8.840;2022-08-19T10:32:02;98286.81;;;23.05;99.05
21633;BME280;48765;51.568;8.840;2022-08-19T10:34:30;98278.09;;;23.00;97.87
21633;BME280;48765;51.568;8.840;2022-08-19T10:36:59;98290.94;;;22.97;95.74
21633;BME280;48765;51.568;8.840;2022-08-19T10:39:27;98272.38;;;23.20;94.44
21633;BME280;48765;51.568;8.840;2022-08-19T10:41:55;98260.94;;;23.01;92.80
21633;BME280;48765;51.568;8.840;2022-08-19T10:44:22;98264.66;;;23.43;91.95
21633;BME280;48765;51.568;8.840;2022-08-19T10:46:49;98257.22;;;23.32;94.51
21633;BME280;48765;51.568;8.840;2022-08-19T10:49:17;98259.97;;;23.02;94.95
21633;BME280;48765;51.568;8.840;2022-08-19T10:51:44;98267.16;;;22.71;96.19
21633;BME280;48765;51.568;8.840;2022-08-19T10:54:29;98264.00;;;22.95;95.74
21633;BME280;48765;51.568;8.840;2022-08-19T10:57:10;98254.50;;;22.88;93.95
21633;BME280;48765;51.568;8.840;2022-08-19T10:59:37;98263.31;;;23.36;92.86
21633;BME280;48765;51.568;8.840;2022-08-19T11:02:05;98266.03;;;23.36;92.53
21633;BME280;48765;51.568;8.840;2022-08-19T11:04:34;98261.94;;;23.29;91.90
21633;BME280;48765;51.568;8.840;2022-08-19T11:07:01;98257.53;;;23.42;91.39
21633;BME280;48765;51.568;8.840;2022-08-19T11:09:30;98253.34;;;23.81;89.44
21633;BME280;48765;51.568;8.840;2022-08-19T11:11:57;98247.09;;;24.07;90.41
21633;BME280;48765;51.568;8.840;2022-08-19T11:14:24;98245.38;;;23.92;88.69
21633;BME280;48765;51.568;8.840;2022-08-19T11:16:52;98249.25;;;23.88;88.25
21633;BME280;48765;51.568;8.840;2022-08-19T11:19:21;98248.97;;;23.78;87.13
21633;BME280;48765;51.568;8.840;2022-08-19T11:21:49;98243.28;;;23.68;87.82
21633;BME280;48765;51.568;8.840;2022-08-19T11:24:17;98235.91;;;23.70;87.57
21633;BME280;48765;51.568;8.840;2022-08-19T11:26:47;98250.97;;;23.46;88.40
21633;BME280;48765;51.568;8.840;2022-08-19T11:29:15;98253.19;;;23.39;89.07
21633;BME280;48765;51.568;8.840;2022-08-19T11:31:43;98249.94;;;23.18;89.55
21633;BME280;48765;51.568;8.840;2022-08-19T11:34:11;98245.72;;;23.29;90.99
21633;BME280;48765;51.568;8.840;2022-08-19T11:36:39;98243.88;;;23.15;91.37
21633;BME280;48765;51.568;8.840;2022-08-19T11:39:08;98239.16;;;22.88;91.60
21633;BME280;48765;51.568;8.840;2022-08-19T11:41:35;98243.00;;;23.14;91.40
21633;BME280;48765;51.568;8.840;2022-08-19T11:44:03;98243.00;;;23.14;92.94
21633;BME280;48765;51.568;8.840;2022-08-19T11:46:33;98240.22;;;23.30;92.39
21633;BME280;48765;51.568;8.840;2022-08-19T11:49:00;98247.22;;;23.49;91.46
21633;BME280;48765;51.568;8.840;2022-08-19T11:51:28;98250.19;;;23.30;89.50
21633;BME280;48765;51.568;8.840;2022-08-19T11:53:56;98239.13;;;23.18;89.67
21633;BME280;48765;51.568;8.840;2022-08-19T11:56:23;98238.69;;;23.40;88.92
21633;BME280;48765;51.568;8.840;2022-08-19T11:58:51;98247.00;;;23.37;87.13
21633;BME280;48765;51.568;8.840;2022-08-19T12:01:20;98234.16;;;23.41;88.66
21633;BME280;48765;51.568;8.840;2022-08-19T12:03:48;98238.91;;;23.66;85.89
21633;BME280;48765;51.568;8.840;2022-08-19T12:06:15;98231.84;;;23.63;85.97
21633;BME280;48765;51.568;8.840;2022-08-19T12:08:43;98221.31;;;24.29;84.31
21633;BME280;48765;51.568;8.840;2022-08-19T12:11:10;98220.31;;;24.44;81.55
21633;BME280;48765;51.568;8.840;2022-08-19T12:13:39;98224.28;;;24.65;81.36
21633;BME280;48765;51.568;8.840;2022-08-19T12:16:07;98225.31;;;24.50;80.64
21633;BME280;48765;51.568;8.840;2022-08-19T12:18:36;98222.63;;;24.90;78.13
21633;BME280;48765;51.568;8.840;2022-08-19T12:21:03;98211.56;;;24.80;74.77
21633;BME280;48765;51.568;8.840;2022-08-19T12:23:30;98214.56;;;25.15;75.71
21633;BME280;48765;51.568;8.840;2022-08-19T12:25:57;98214.25;;;24.80;75.87
21633;BME280;48765;51.568;8.840;2022-08-19T12:28:24;98200.72;;;24.26;77.21
21633;BME280;48765;51.568;8.840;2022-08-19T12:30:51;98203.13;;;24.85;75.94
21633;BME280;48765;51.568;8.840;2022-08-19T12:33:18;98205.47;;;24.77;74.33
21633;BME280;48765;51.568;8.840;2022-08-19T12:35:50;98193.84;;;25.14;73.28
21633;BME280;48765;51.568;8.840;2022-08-19T12:38:17;98194.47;;;25.31;71.54
21633;BME280;48765;51.568;8.840;2022-08-19T12:40:45;98181.66;;;25.07;71.80
21633;BME280;48765;51.568;8.840;2022-08-19T12:43:12;98196.06;;;24.95;71.70
21633;BME280;48765;51.568;8.840;2022-08-19T12:45:40;98203.09;;;24.45;71.51
21633;BME280;48765;51.568;8.840;2022-08-19T12:48:08;98204.38;;;24.66;72.18
21633;BME280;48765;51.568;8.840;2022-08-19T12:50:35;98193.06;;;25.12;71.37
21633;BME280;48765;51.568;8.840;2022-08-19T12:53:03;98200.19;;;25.01;68.02
21633;BME280;48765;51.568;8.840;2022-08-19T12:55:30;98206.56;;;24.87;67.96
21633;BME280;48765;51.568;8.840;2022-08-19T12:57:57;98207.56;;;24.86;67.19